sensor_id;sensor_type;location;lat;lon;timestamp;pressure;altitude;pressure_sealevel;temperature;humidity
52983;BME280;48698;45.736;13.926;2024-01-15T00:04:37;96789.34;;;3.06;100.00
52983;BME280;48698;45.736;13.926;2024-01-15T00:09:41;96700.31;;;2.53;100.00
52983;BME280;48698;45.736;13.926;2024-01-15T00:14:45;96752.41;;;2.87;100.00
52983;BME280;48698;45.736;13.926;2024-01-15T00:19:48;96665.53;;;2.24;100.00
52983;BME280;48698;45.736;13.926;2024-01-15T00:24:52;96692.88;;;2.41;100.00
52983;BME280;48698;45.736;13.926;2024-01-15T00:29:56;96719.50;;;2.79;100.00
52983;BME280;48698;45.736;13.926;2024-01-15T00:35:00;96700.50;;;2.72;100.00
52983;BME280;48698;45.736;13.926;2024-01-15T00:40:04;96677.19;;;2.65;100.00
52983;BME280;48698;45.736;13.926;2024-01-15T00:45:09;96628.69;;;2.28;100.00
52983;BME280;48698;45.736;13.926;2024-01-15T00:50:13;96577.94;;;2.06;100.00
52983;BME280;48698;45.736;13.926;2024-01-15T00:55:17;96695.97;;;2.77;100.00
52983;BME280;48698;45.736;13.926;2024-01-15T01:00:21;96693.38;;;2.76;100.00
52983;BME280;48698;45.736;13.926;2024-01-15T01:05:24;96687.03;;;2.83;100.00
52983;BME280;48698;45.736;13.926;2024-01-15T01:10:28;96643.34;;;2.58;100.00
52983;BME280;48698;45.736;13.926;2024-01-15T01:15:31;96680.53;;;2.93;100.00
52983;BME280;48698;45.736;13.926;2024-01-15T01:20:35;96587.34;;;2.36;100.00
52983;BME280;48698;45.736;13.926;2024-01-15T01:25:38;96671.88;;;2.91;100.00
52983;BME280;48698;45.736;13.926;2024-01-15T01:30:42;96675.53;;;3.10;100.00
52983;BME280;48698;45.736;13.926;2024-01-15T01:35:45;96611.19;;;2.53;100.00
52983;BME280;48698;45.736;13.926;2024-01-15T01:40:50;96648.59;;;2.82;100.00
52983;BME280;48698;45.736;13.926;2024-01-15T01:45:56;96650.44;;;2.80;100.00
52983;BME280;48698;45.736;13.926;2024-01-15T01:51:02;96627.19;;;2.94;100.00
52983;BME280;48698;45.736;13.926;2024-01-15T01:56:07;96616.81;;;2.91;100.00
52983;BME280;48698;45.736;13.926;2024-01-15T02:01:12;96587.38;;;2.83;100.00
52983;BME280;48698;45.736;13.926;2024-01-15T02:06:16;96627.34;;;3.12;100.00
52983;BME280;48698;45.736;13.926;2024-01-15T02:11:20;96598.22;;;2.97;100.00
52983;BME280;48698;45.736;13.926;2024-01-15T02:16:23;96598.56;;;3.11;100.00
52983;BME280;48698;45.736;13.926;2024-01-15T02:21:27;96610.56;;;3.17;100.00
52983;BME280;48698;45.736;13.926;2024-01-15T02:26:32;96569.59;;;2.91;100.00
52983;BME280;48698;45.736;13.926;2024-01-15T02:31:39;96535.53;;;2.68;100.00
52983;BME280;48698;45.736;13.926;2024-01-15T02:36:42;96585.09;;;2.97;100.00
52983;BME280;48698;45.736;13.926;2024-01-15T02:41:46;96576.22;;;3.01;100.00
52983;BME280;48698;45.736;13.926;2024-01-15T02:46:50;96574.00;;;2.90;100.00
52983;BME280;48698;45.736;13.926;2024-01-15T02:51:53;96536.31;;;2.70;100.00
52983;BME280;48698;45.736;13.926;2024-01-15T02:56:57;96564.97;;;2.97;100.00
52983;BME280;48698;45.736;13.926;2024-01-15T03:02:00;96550.22;;;2.95;100.00
52983;BME280;48698;45.736;13.926;2024-01-15T03:07:04;96524.66;;;3.00;100.00
52983;BME280;48698;45.736;13.926;2024-01-15T03:12:08;96530.28;;;2.91;100.00
52983;BME280;48698;45.736;13.926;2024-01-15T03:17:11;96526.28;;;2.81;100.00
52983;BME280;48698;45.736;13.926;2024-01-15T03:22:16;96527.41;;;2.97;100.00
52983;BME280;48698;45.736;13.926;2024-01-15T03:27:20;96493.66;;;2.66;100.00
52983;BME280;48698;45.736;13.926;2024-01-15T03:32:24;96539.63;;;2.98;100.00
52983;BME280;48698;45.736;13.926;2024-01-15T03:37:28;96455.19;;;2.67;100.00
52983;BME280;48698;45.736;13.926;2024-01-15T03:42:31;96512.91;;;3.10;100.00
52983;BME280;48698;45.736;13.926;2024-01-15T03:47:35;96421.00;;;2.70;100.00
52983;BME280;48698;45.736;13.926;2024-01-15T03:52:39;96450.50;;;2.96;100.00
52983;BME280;48698;45.736;13.926;2024-01-15T03:57:43;96482.81;;;2.97;100.00
52983;BME280;48698;45.736;13.926;2024-01-15T04:02:46;96331.97;;;2.25;100.00
52983;BME280;48698;45.736;13.926;2024-01-15T04:07:50;96465.38;;;2.96;100.00
52983;BME280;48698;45.736;13.926;2024-01-15T04:12:53;96370.56;;;2.63;100.00
52983;BME280;48698;45.736;13.926;2024-01-15T04:17:57;96411.50;;;3.09;100.00
52983;BME280;48698;45.736;13.926;2024-01-15T04:23:00;96370.31;;;2.69;100.00
52983;BME280;48698;45.736;13.926;2024-01-15T04:28:04;96437.00;;;3.05;100.00
52983;BME280;48698;45.736;13.926;2024-01-15T04:33:07;96416.50;;;3.15;100.00
52983;BME280;48698;45.736;13.926;2024-01-15T04:38:11;96409.22;;;3.01;100.00
52983;BME280;48698;45.736;13.926;2024-01-15T04:43:15;96377.03;;;2.76;100.00
52983;BME280;48698;45.736;13.926;2024-01-15T04:48:31;96422.50;;;2.97;100.00
52983;BME280;48698;45.736;13.926;2024-01-15T04:53:35;96375.88;;;2.83;100.00
52983;BME280;48698;45.736;13.926;2024-01-15T04:58:39;96417.13;;;3.00;100.00
52983;BME280;48698;45.736;13.926;2024-01-15T05:03:42;96393.50;;;3.01;100.00
52983;BME280;48698;45.736;13.926;2024-01-15T05:08:46;96429.78;;;3.32;100.00
52983;BME280;48698;45.736;13.926;2024-01-15T05:13:50;96416.53;;;3.35;100.00
52983;BME280;48698;45.736;13.926;2024-01-15T05:18:53;96419.66;;;3.23;100.00
52983;BME280;48698;45.736;13.926;2024-01-15T05:23:57;96423.06;;;3.25;100.00
52983;BME280;48698;45.736;13.926;2024-01-15T05:29:01;96439.63;;;3.27;100.00
52983;BME280;48698;45.736;13.926;2024-01-15T05:34:05;96439.50;;;3.30;100.00
52983;BME280;48698;45.736;13.926;2024-01-15T05:39:09;96425.69;;;3.25;100.00
52983;BME280;48698;45.736;13.926;2024-01-15T05:44:13;96403.63;;;3.09;100.00
52983;BME280;48698;45.736;13.926;2024-01-15T05:49:16;96391.00;;;3.19;100.00
52983;BME280;48698;45.736;13.926;2024-01-15T05:54:20;96382.53;;;3.12;100.00
52983;BME280;48698;45.736;13.926;2024-01-15T05:59:24;96409.59;;;3.34;100.00
52983;BME280;48698;45.736;13.926;2024-01-15T06:04:28;96395.63;;;3.12;100.00
52983;BME280;48698;45.736;13.926;2024-01-15T06:09:32;96324.44;;;2.81;100.00
52983;BME280;48698;45.736;13.926;2024-01-15T06:14:35;96389.91;;;3.24;100.00
52983;BME280;48698;45.736;13.926;2024-01-15T06:19:39;96394.63;;;3.36;100.00
52983;BME280;48698;45.736;13.926;2024-01-15T06:24:43;96304.75;;;2.71;100.00
52983;BME280;48698;45.736;13.926;2024-01-15T06:29:47;96393.44;;;3.23;100.00
52983;BME280;48698;45.736;13.926;2024-01-15T06:34:52;96322.28;;;2.90;100.00
52983;BME280;48698;45.736;13.926;2024-01-15T06:39:56;96352.38;;;3.22;100.00
52983;BME280;48698;45.736;13.926;2024-01-15T06:45:00;96353.94;;;3.26;100.00
52983;BME280;48698;45.736;13.926;2024-01-15T06:50:04;96334.50;;;3.11;100.00
52983;BME280;48698;45.736;13.926;2024-01-15T06:55:10;96384.13;;;3.36;100.00
52983;BME280;48698;45.736;13.926;2024-01-15T07:00:14;96378.56;;;3.24;100.00
52983;BME280;48698;45.736;13.926;2024-01-15T07:05:20;96340.81;;;3.06;100.00
52983;BME280;48698;45.736;13.926;2024-01-15T07:10:24;96390.16;;;3.38;100.00
52983;BME280;48698;45.736;13.926;2024-01-15T07:15:28;96326.13;;;3.02;100.00
52983;BME280;48698;45.736;13.926;2024-01-15T07:20:31;96283.72;;;2.92;100.00
52983;BME280;48698;45.736;13.926;2024-01-15T07:25:35;96388.25;;;3.42;100.00
52983;BME280;48698;45.736;13.926;2024-01-15T07:30:38;96344.94;;;3.32;100.00
52983;BME280;48698;45.736;13.926;2024-01-15T07:35:42;96368.84;;;3.46;100.00
52983;BME280;48698;45.736;13.926;2024-01-15T07:40:46;96399.59;;;3.62;100.00
52983;BME280;48698;45.736;13.926;2024-01-15T07:45:52;96408.50;;;3.79;100.00
52983;BME280;48698;45.736;13.926;2024-01-15T07:50:56;96318.25;;;3.42;100.00
52983;BME280;48698;45.736;13.926;2024-01-15T07:55:59;96394.50;;;3.98;100.00
52983;BME280;48698;45.736;13.926;2024-01-15T08:01:03;96417.91;;;4.23;100.00
52983;BME280;48698;45.736;13.926;2024-01-15T08:06:07;96400.69;;;4.35;100.00
52983;BME280;48698;45.736;13.926;2024-01-15T08:11:14;96369.69;;;4.24;100.00
52983;BME280;48698;45.736;13.926;2024-01-15T08:16:17;96401.56;;;4.54;100.00
52983;BME280;48698;45.736;13.926;2024-01-15T08:21:21;96382.16;;;4.56;100.00
52983;BME280;48698;45.736;13.926;2024-01-15T08:26:25;96395.63;;;4.67;100.00
52983;BME280;48698;45.736;13.926;2024-01-15T08:31:29;96412.69;;;4.78;100.00
52983;BME280;48698;45.736;13.926;2024-01-15T08:36:32;96417.94;;;4.78;100.00
52983;BME280;48698;45.736;13.926;2024-01-15T08:41:39;96379.03;;;4.48;100.00
52983;BME280;48698;45.736;13.926;2024-01-15T08:46:42;96373.34;;;4.39;100.00
52983;BME280;48698;45.736;13.926;2024-01-15T08:51:46;96383.56;;;4.45;100.00
52983;BME280;48698;45.736;13.926;2024-01-15T08:56:51;96405.44;;;4.64;100.00
52983;BME280;48698;45.736;13.926;2024-01-15T09:01:54;96380.09;;;4.44;100.00
52983;BME280;48698;45.736;13.926;2024-01-15T09:07:00;96422.94;;;4.65;100.00
52983;BME280;48698;45.736;13.926;2024-01-15T09:12:03;96430.03;;;4.82;100.00
52983;BME280;48698;45.736;13.926;2024-01-15T09:17:07;96399.97;;;4.68;100.00
52983;BME280;48698;45.736;13.926;2024-01-15T09:22:12;96437.66;;;5.05;100.00
52983;BME280;48698;45.736;13.926;2024-01-15T09:27:17;96425.75;;;5.15;100.00
52983;BME280;48698;45.736;13.926;2024-01-15T09:32:21;96435.22;;;5.19;100.00
52983;BME280;48698;45.736;13.926;2024-01-15T09:37:24;96427.94;;;5.24;100.00
52983;BME280;48698;45.736;13.926;2024-01-15T09:42:46;96420.84;;;5.26;100.00
52983;BME280;48698;45.736;13.926;2024-01-15T09:47:50;96410.16;;;5.29;100.00
52983;BME280;48698;45.736;13.926;2024-01-15T09:52:54;96425.00;;;5.47;100.00
52983;BME280;48698;45.736;13.926;2024-01-15T09:58:00;96353.56;;;5.03;100.00
52983;BME280;48698;45.736;13.926;2024-01-15T10:03:06;96386.00;;;5.38;100.00
52983;BME280;48698;45.736;13.926;2024-01-15T10:08:11;96362.31;;;5.38;100.00
52983;BME280;48698;45.736;13.926;2024-01-15T10:13:15;96315.22;;;4.98;100.00
52983;BME280;48698;45.736;13.926;2024-01-15T10:18:18;96358.91;;;5.19;100.00
52983;BME280;48698;45.736;13.926;2024-01-15T10:23:23;96340.63;;;5.33;100.00
52983;BME280;48698;45.736;13.926;2024-01-15T10:28:27;96326.00;;;5.28;100.00
52983;BME280;48698;45.736;13.926;2024-01-15T10:33:32;96372.25;;;5.83;100.00
52983;BME280;48698;45.736;13.926;2024-01-15T10:38:36;96289.22;;;5.26;100.00
52983;BME280;48698;45.736;13.926;2024-01-15T10:43:39;96265.41;;;5.12;100.00
52983;BME280;48698;45.736;13.926;2024-01-15T10:48:46;96344.59;;;5.74;100.00
52983;BME280;48698;45.736;13.926;2024-01-15T10:53:49;96325.41;;;5.72;100.00
52983;BME280;48698;45.736;13.926;2024-01-15T10:59:04;96261.66;;;5.33;100.00
52983;BME280;48698;45.736;13.926;2024-01-15T11:04:07;96292.13;;;5.54;100.00
52983;BME280;48698;45.736;13.926;2024-01-15T11:09:12;96264.56;;;5.44;100.00
52983;BME280;48698;45.736;13.926;2024-01-15T11:14:35;96319.13;;;5.75;100.00
52983;BME280;48698;45.736;13.926;2024-01-15T11:20:06;96316.03;;;5.67;100.00
52983;BME280;48698;45.736;13.926;2024-01-15T11:25:15;96301.88;;;5.69;100.00
52983;BME280;48698;45.736;13.926;2024-01-15T11:30:25;96258.72;;;5.39;100.00
52983;BME280;48698;45.736;13.926;2024-01-15T11:35:47;96308.06;;;5.68;100.00
52983;BME280;48698;45.736;13.926;2024-01-15T11:40:50;96285.25;;;5.52;100.00
52983;BME280;48698;45.736;13.926;2024-01-15T11:45:54;96176.44;;;4.86;100.00
52983;BME280;48698;45.736;13.926;2024-01-15T11:50:58;96292.75;;;5.59;100.00
52983;BME280;48698;45.736;13.926;2024-01-15T11:56:03;96241.44;;;5.34;100.00
52983;BME280;48698;45.736;13.926;2024-01-15T12:01:10;96085.31;;;4.52;100.00
52983;BME280;48698;45.736;13.926;2024-01-15T12:06:14;96271.75;;;5.73;100.00
52983;BME280;48698;45.736;13.926;2024-01-15T12:11:18;96265.44;;;5.60;100.00
52983;BME280;48698;45.736;13.926;2024-01-15T12:16:33;96198.97;;;5.24;100.00
52983;BME280;48698;45.736;13.926;2024-01-15T12:21:46;96177.81;;;5.10;100.00
52983;BME280;48698;45.736;13.926;2024-01-15T12:27:09;96166.06;;;5.00;100.00
52983;BME280;48698;45.736;13.926;2024-01-15T12:32:23;96150.44;;;4.97;100.00
52983;BME280;48698;45.736;13.926;2024-01-15T12:37:27;96230.00;;;5.50;100.00
52983;BME280;48698;45.736;13.926;2024-01-15T12:42:29;96245.16;;;5.47;100.00
52983;BME280;48698;45.736;13.926;2024-01-15T12:47:33;96234.53;;;5.48;100.00
52983;BME280;48698;45.736;13.926;2024-01-15T12:52:35;96186.13;;;5.18;100.00
52983;BME280;48698;45.736;13.926;2024-01-15T12:57:40;96182.25;;;5.25;100.00
52983;BME280;48698;45.736;13.926;2024-01-15T13:02:43;96163.25;;;5.20;100.00
52983;BME280;48698;45.736;13.926;2024-01-15T13:07:46;96194.44;;;5.43;100.00
52983;BME280;48698;45.736;13.926;2024-01-15T13:12:48;96156.38;;;5.33;100.00
52983;BME280;48698;45.736;13.926;2024-01-15T13:17:54;96206.75;;;5.58;100.00
52983;BME280;48698;45.736;13.926;2024-01-15T13:22:56;96061.94;;;4.63;100.00
52983;BME280;48698;45.736;13.926;2024-01-15T13:27:59;96189.75;;;5.48;100.00
52983;BME280;48698;45.736;13.926;2024-01-15T13:33:02;96147.09;;;5.26;100.00
52983;BME280;48698;45.736;13.926;2024-01-15T13:38:07;96186.78;;;5.54;100.00
52983;BME280;48698;45.736;13.926;2024-01-15T13:43:11;96169.38;;;5.52;100.00
52983;BME280;48698;45.736;13.926;2024-01-15T13:48:16;96159.09;;;5.47;100.00
52983;BME280;48698;45.736;13.926;2024-01-15T13:53:19;96141.00;;;5.41;100.00
52983;BME280;48698;45.736;13.926;2024-01-15T13:58:22;96025.56;;;4.71;100.00
52983;BME280;48698;45.736;13.926;2024-01-15T14:03:25;96160.81;;;5.48;100.00
52983;BME280;48698;45.736;13.926;2024-01-15T14:08:31;96110.94;;;5.30;100.00
52983;BME280;48698;45.736;13.926;2024-01-15T14:13:34;96124.78;;;5.33;100.00
52983;BME280;48698;45.736;13.926;2024-01-15T14:18:37;95954.34;;;4.27;100.00
52983;BME280;48698;45.736;13.926;2024-01-15T14:23:40;96147.28;;;5.39;100.00
52983;BME280;48698;45.736;13.926;2024-01-15T14:28:43;96161.88;;;5.29;100.00
52983;BME280;48698;45.736;13.926;2024-01-15T14:33:52;96060.44;;;4.75;100.00
52983;BME280;48698;45.736;13.926;2024-01-15T14:38:55;96093.91;;;4.88;100.00
52983;BME280;48698;45.736;13.926;2024-01-15T14:43:58;96122.28;;;5.14;100.00
52983;BME280;48698;45.736;13.926;2024-01-15T14:49:00;96138.53;;;5.22;100.00
52983;BME280;48698;45.736;13.926;2024-01-15T14:54:03;96143.63;;;5.26;100.00
52983;BME280;48698;45.736;13.926;2024-01-15T14:59:06;96082.78;;;4.83;100.00
52983;BME280;48698;45.736;13.926;2024-01-15T15:04:09;96091.03;;;4.93;100.00
52983;BME280;48698;45.736;13.926;2024-01-15T15:09:14;96124.16;;;5.12;100.00
52983;BME280;48698;45.736;13.926;2024-01-15T15:14:18;96129.59;;;5.09;100.00
52983;BME280;48698;45.736;13.926;2024-01-15T15:19:21;96064.53;;;4.80;100.00
52983;BME280;48698;45.736;13.926;2024-01-15T15:24:24;95991.91;;;4.29;100.00
52983;BME280;48698;45.736;13.926;2024-01-15T15:29:27;96081.88;;;5.00;100.00
52983;BME280;48698;45.736;13.926;2024-01-15T15:34:31;96015.34;;;4.49;100.00
52983;BME280;48698;45.736;13.926;2024-01-15T15:39:34;95911.19;;;3.83;100.00
52983;BME280;48698;45.736;13.926;2024-01-15T15:44:37;95955.50;;;4.22;100.00
52983;BME280;48698;45.736;13.926;2024-01-15T15:49:41;95834.41;;;3.45;100.00
52983;BME280;48698;45.736;13.926;2024-01-15T15:54:45;95829.25;;;3.43;100.00
52983;BME280;48698;45.736;13.926;2024-01-15T15:59:48;95847.63;;;3.26;100.00
52983;BME280;48698;45.736;13.926;2024-01-15T16:04:50;96103.13;;;4.80;100.00
52983;BME280;48698;45.736;13.926;2024-01-15T16:09:56;96080.19;;;4.66;100.00
52983;BME280;48698;45.736;13.926;2024-01-15T16:15:16;96061.22;;;4.44;100.00
52983;BME280;48698;45.736;13.926;2024-01-15T16:20:20;96071.19;;;4.37;100.00
52983;BME280;48698;45.736;13.926;2024-01-15T16:25:43;96107.84;;;4.40;100.00
52983;BME280;48698;45.736;13.926;2024-01-15T16:30:46;96117.72;;;4.35;100.00
52983;BME280;48698;45.736;13.926;2024-01-15T16:35:56;96101.72;;;4.05;100.00
52983;BME280;48698;45.736;13.926;2024-01-15T16:41:07;95954.47;;;3.23;100.00
52983;BME280;48698;45.736;13.926;2024-01-15T16:46:09;96010.00;;;3.49;100.00
52983;BME280;48698;45.736;13.926;2024-01-15T16:51:12;96150.03;;;4.20;100.00
52983;BME280;48698;45.736;13.926;2024-01-15T16:56:15;96149.03;;;4.23;100.00
52983;BME280;48698;45.736;13.926;2024-01-15T17:01:18;95965.34;;;2.98;100.00
52983;BME280;48698;45.736;13.926;2024-01-15T17:06:21;96009.47;;;3.07;100.00
52983;BME280;48698;45.736;13.926;2024-01-15T17:11:24;96070.97;;;3.37;100.00
52983;BME280;48698;45.736;13.926;2024-01-15T17:16:27;96234.53;;;4.11;100.00
52983;BME280;48698;45.736;13.926;2024-01-15T17:21:30;96179.91;;;3.82;100.00
52983;BME280;48698;45.736;13.926;2024-01-15T17:26:33;96068.19;;;3.22;100.00
52983;BME280;48698;45.736;13.926;2024-01-15T17:31:35;96205.31;;;4.00;100.00
52983;BME280;48698;45.736;13.926;2024-01-15T17:36:39;96018.53;;;3.00;100.00
52983;BME280;48698;45.736;13.926;2024-01-15T17:41:41;96234.34;;;4.33;100.00
52983;BME280;48698;45.736;13.926;2024-01-15T17:46:44;96107.22;;;3.65;100.00
52983;BME280;48698;45.736;13.926;2024-01-15T17:51:47;96146.06;;;3.94;100.00
52983;BME280;48698;45.736;13.926;2024-01-15T17:56:50;96185.88;;;4.04;100.00
52983;BME280;48698;45.736;13.926;2024-01-15T18:01:53;96187.69;;;4.02;100.00
52983;BME280;48698;45.736;13.926;2024-01-15T18:06:56;96223.41;;;4.06;100.00
52983;BME280;48698;45.736;13.926;2024-01-15T18:11:59;96244.63;;;4.20;100.00
52983;BME280;48698;45.736;13.926;2024-01-15T18:17:07;96171.13;;;3.83;100.00
52983;BME280;48698;45.736;13.926;2024-01-15T18:22:10;96063.34;;;3.14;100.00
52983;BME280;48698;45.736;13.926;2024-01-15T18:27:13;96204.53;;;3.98;100.00
52983;BME280;48698;45.736;13.926;2024-01-15T18:32:16;96125.63;;;3.46;100.00
52983;BME280;48698;45.736;13.926;2024-01-15T18:37:19;96194.78;;;3.45;100.00
52983;BME280;48698;45.736;13.926;2024-01-15T18:42:23;96060.28;;;2.86;100.00
52983;BME280;48698;45.736;13.926;2024-01-15T18:47:26;96093.53;;;3.04;100.00
52983;BME280;48698;45.736;13.926;2024-01-15T18:52:28;96260.78;;;3.94;100.00
52983;BME280;48698;45.736;13.926;2024-01-15T18:57:32;96069.00;;;2.68;100.00
52983;BME280;48698;45.736;13.926;2024-01-15T19:02:34;96243.00;;;3.61;100.00
52983;BME280;48698;45.736;13.926;2024-01-15T19:07:37;96233.09;;;3.49;100.00
52983;BME280;48698;45.736;13.926;2024-01-15T19:12:41;96048.13;;;2.46;100.00
52983;BME280;48698;45.736;13.926;2024-01-15T19:17:44;96242.44;;;3.55;100.00
52983;BME280;48698;45.736;13.926;2024-01-15T19:22:47;96164.34;;;3.04;100.00
52983;BME280;48698;45.736;13.926;2024-01-15T19:27:50;96294.19;;;3.90;100.00
52983;BME280;48698;45.736;13.926;2024-01-15T19:32:54;96210.28;;;2.92;100.00
52983;BME280;48698;45.736;13.926;2024-01-15T19:37:57;96188.88;;;2.63;100.00
52983;BME280;48698;45.736;13.926;2024-01-15T19:43:00;96142.78;;;2.38;100.00
52983;BME280;48698;45.736;13.926;2024-01-15T19:48:05;96048.50;;;2.18;100.00
52983;BME280;48698;45.736;13.926;2024-01-15T19:53:09;96301.28;;;3.88;100.00
52983;BME280;48698;45.736;13.926;2024-01-15T19:58:12;96252.97;;;3.74;100.00
52983;BME280;48698;45.736;13.926;2024-01-15T20:03:16;96054.13;;;2.68;100.00
52983;BME280;48698;45.736;13.926;2024-01-15T20:08:19;96148.31;;;3.29;100.00
52983;BME280;48698;45.736;13.926;2024-01-15T20:13:22;96277.34;;;4.13;100.00
52983;BME280;48698;45.736;13.926;2024-01-15T20:18:27;96273.69;;;4.34;100.00
52983;BME280;48698;45.736;13.926;2024-01-15T20:23:34;96251.09;;;4.13;100.00
52983;BME280;48698;45.736;13.926;2024-01-15T20:28:52;96232.78;;;3.93;100.00
52983;BME280;48698;45.736;13.926;2024-01-15T20:33:55;96253.06;;;4.08;100.00
52983;BME280;48698;45.736;13.926;2024-01-15T20:38:58;96070.84;;;3.03;100.00
52983;BME280;48698;45.736;13.926;2024-01-15T20:44:01;96025.69;;;2.59;100.00
52983;BME280;48698;45.736;13.926;2024-01-15T20:49:04;96169.50;;;3.61;100.00
52983;BME280;48698;45.736;13.926;2024-01-15T20:54:07;96141.88;;;3.54;100.00
52983;BME280;48698;45.736;13.926;2024-01-15T20:59:10;96188.00;;;3.96;100.00
52983;BME280;48698;45.736;13.926;2024-01-15T21:04:13;96218.31;;;4.03;100.00
52983;BME280;48698;45.736;13.926;2024-01-15T21:09:16;96233.44;;;4.34;100.00
52983;BME280;48698;45.736;13.926;2024-01-15T21:14:19;96184.91;;;3.88;100.00
52983;BME280;48698;45.736;13.926;2024-01-15T21:19:22;96120.31;;;3.29;100.00
52983;BME280;48698;45.736;13.926;2024-01-15T21:24:26;96016.66;;;2.27;100.00
52983;BME280;48698;45.736;13.926;2024-01-15T21:29:29;96024.53;;;2.27;100.00
52983;BME280;48698;45.736;13.926;2024-01-15T21:34:33;96036.72;;;2.28;100.00
52983;BME280;48698;45.736;13.926;2024-01-15T21:39:36;96263.72;;;3.49;100.00
52983;BME280;48698;45.736;13.926;2024-01-15T21:44:39;96248.59;;;3.35;100.00
52983;BME280;48698;45.736;13.926;2024-01-15T21:49:43;96135.44;;;2.46;100.00
52983;BME280;48698;45.736;13.926;2024-01-15T21:54:48;96280.31;;;3.49;100.00
52983;BME280;48698;45.736;13.926;2024-01-15T21:59:51;96166.31;;;2.79;100.00
52983;BME280;48698;45.736;13.926;2024-01-15T22:04:55;96128.00;;;2.76;100.00
52983;BME280;48698;45.736;13.926;2024-01-15T22:09:57;96244.44;;;3.87;100.00
52983;BME280;48698;45.736;13.926;2024-01-15T22:15:00;95967.19;;;2.21;100.00
52983;BME280;48698;45.736;13.926;2024-01-15T22:20:03;96100.94;;;2.76;100.00
52983;BME280;48698;45.736;13.926;2024-01-15T22:25:06;96284.13;;;4.00;100.00
52983;BME280;48698;45.736;13.926;2024-01-15T22:30:10;96134.28;;;3.11;100.00
52983;BME280;48698;45.736;13.926;2024-01-15T22:35:13;96023.19;;;2.37;100.00
52983;BME280;48698;45.736;13.926;2024-01-15T22:40:17;96167.63;;;2.89;100.00
52983;BME280;48698;45.736;13.926;2024-01-15T22:45:20;96065.00;;;2.20;100.00
52983;BME280;48698;45.736;13.926;2024-01-15T22:50:23;96320.38;;;3.73;100.00
52983;BME280;48698;45.736;13.926;2024-01-15T22:55:26;96298.31;;;3.38;100.00
52983;BME280;48698;45.736;13.926;2024-01-15T23:00:29;96278.69;;;3.08;100.00
52983;BME280;48698;45.736;13.926;2024-01-15T23:05:32;96297.69;;;3.13;100.00
52983;BME280;48698;45.736;13.926;2024-01-15T23:10:35;96073.47;;;1.65;100.00
52983;BME280;48698;45.736;13.926;2024-01-15T23:15:38;96291.06;;;2.84;100.00
52983;BME280;48698;45.736;13.926;2024-01-15T23:20:41;96329.56;;;3.04;100.00
52983;BME280;48698;45.736;13.926;2024-01-15T23:25:44;96320.63;;;2.88;100.00
52983;BME280;48698;45.736;13.926;2024-01-15T23:30:46;96175.72;;;1.82;100.00
52983;BME280;48698;45.736;13.926;2024-01-15T23:35:49;96325.34;;;2.80;100.00
52983;BME280;48698;45.736;13.926;2024-01-15T23:40:57;96318.72;;;2.71;100.00
52983;BME280;48698;45.736;13.926;2024-01-15T23:46:01;96193.09;;;1.83;100.00
52983;BME280;48698;45.736;13.926;2024-01-15T23:51:15;96341.44;;;2.71;100.00
52983;BME280;48698;45.736;13.926;2024-01-15T23:56:17;96358.50;;;2.59;100.00
